createdAt,value
2019-05-18T00:00:43.832Z,1005.17
2019-05-18T00:01:43.880Z,1005.15
2019-05-18T00:02:43.923Z,1005.15
2019-05-18T00:03:43.946Z,1005.14
2019-05-18T00:04:43.966Z,1005.13
2019-05-18T00:05:44.014Z,1005.10
2019-05-18T00:06:44.053Z,1005.11
2019-05-18T00:07:44.085Z,1005.09
2019-05-18T00:08:44.110Z,1005.10
2019-05-18T00:09:44.206Z,1005.09
2019-05-18T00:10:44.176Z,1005.07
2019-05-18T00:11:44.219Z,1005.04
2019-05-18T00:12:44.238Z,1005.04
2019-05-18T00:13:44.276Z,1005.05
2019-05-18T00:14:44.312Z,1005.02
2019-05-18T00:15:44.355Z,1005.04
2019-05-18T00:16:44.385Z,1005.06
2019-05-18T00:17:44.426Z,1005.06
2019-05-18T00:18:44.449Z,1005.08
2019-05-18T00:19:44.515Z,1005.07
2019-05-18T00:20:44.518Z,1005.07
2019-05-18T00:21:44.585Z,1005.06
2019-05-18T00:22:44.588Z,1005.11
2019-05-18T00:23:44.639Z,1005.13
2019-05-18T00:24:44.654Z,1005.14
2019-05-18T00:25:44.678Z,1005.12
2019-05-18T00:26:44.731Z,1005.12
2019-05-18T00:27:44.744Z,1005.14
2019-05-18T00:28:44.786Z,1005.14
2019-05-18T00:29:44.811Z,1005.13
2019-05-18T00:30:44.869Z,1005.12
2019-05-18T00:31:44.887Z,1005.12
2019-05-18T00:32:44.921Z,1005.11
2019-05-18T00:33:44.941Z,1005.14
2019-05-18T00:34:44.987Z,1005.14
2019-05-18T00:35:45.014Z,1005.10
2019-05-18T00:36:45.056Z,1005.13
2019-05-18T00:37:45.088Z,1005.15
2019-05-18T00:38:45.120Z,1005.15
2019-05-18T00:39:45.158Z,1005.11
2019-05-18T00:40:45.185Z,1005.08
2019-05-18T00:41:45.652Z,1005.09
2019-05-18T00:42:45.255Z,1005.11
2019-05-18T00:43:45.274Z,1005.13
2019-05-18T00:44:45.321Z,1005.12
2019-05-18T00:45:45.347Z,1005.16
2019-05-18T00:46:45.391Z,1005.13
2019-05-18T00:47:45.429Z,1005.11
2019-05-18T00:48:45.456Z,1005.13
2019-05-18T00:49:45.482Z,1005.11
2019-05-18T00:50:45.520Z,1005.06
2019-05-18T00:51:45.563Z,1005.10
2019-05-18T00:52:45.587Z,1005.08
2019-05-18T00:53:45.620Z,1005.08
2019-05-18T00:54:45.665Z,1005.08
2019-05-18T00:55:45.682Z,1005.06
2019-05-18T00:56:45.714Z,1005.08
2019-05-18T00:57:45.758Z,1005.08
2019-05-18T00:58:45.793Z,1005.06
2019-05-18T00:59:45.822Z,1005.05
2019-05-18T01:00:45.849Z,1005.07
2019-05-18T01:01:45.892Z,1005.10
2019-05-18T01:02:45.914Z,1005.10
2019-05-18T01:03:45.956Z,1005.05
2019-05-18T01:04:45.985Z,1005.04
2019-05-18T01:05:46.021Z,1005.04
2019-05-18T01:06:46.065Z,1005.05
2019-05-18T01:07:46.090Z,1005.03
2019-05-18T01:08:46.119Z,1005.03
2019-05-18T01:09:46.154Z,1005.03
2019-05-18T01:10:46.208Z,1005.06
2019-05-18T01:11:46.237Z,1005.02
2019-05-18T01:12:46.249Z,1005.04
2019-05-18T01:13:46.287Z,1005.06
2019-05-18T01:14:46.316Z,1005.08
2019-05-18T01:15:46.342Z,1005.05
2019-05-18T01:16:46.390Z,1005.07
2019-05-18T01:17:56.920Z,1005.07
2019-05-18T01:18:46.460Z,1005.08
2019-05-18T01:19:46.475Z,1005.06
2019-05-18T01:20:46.521Z,1005.07
2019-05-18T01:21:46.558Z,1005.08
2019-05-18T01:22:46.585Z,1005.09
2019-05-18T01:23:46.621Z,1005.07
2019-05-18T01:24:46.651Z,1005.05
2019-05-18T01:25:46.674Z,1005.06
2019-05-18T01:26:46.725Z,1005.03
2019-05-18T01:27:46.744Z,1005.00
2019-05-18T01:28:46.783Z,1005.06
2019-05-18T01:29:46.820Z,1005.02
2019-05-18T01:30:46.845Z,1004.99
2019-05-18T01:31:46.884Z,1004.97
2019-05-18T01:32:46.915Z,1004.96
2019-05-18T01:33:46.948Z,1004.97
2019-05-18T01:34:46.985Z,1004.94
2019-05-18T01:35:47.012Z,1004.96
2019-05-18T01:36:47.052Z,1004.93
2019-05-18T01:37:47.082Z,1004.97
2019-05-18T01:38:47.114Z,1004.98
2019-05-18T01:39:47.148Z,1004.97
2019-05-18T01:40:47.222Z,1005.01
2019-05-18T01:41:47.217Z,1005.05
2019-05-18T01:42:47.253Z,1005.06
2019-05-18T01:43:47.269Z,1005.05
2019-05-18T01:44:47.308Z,1005.05
2019-05-18T01:45:47.340Z,1005.07
2019-05-18T01:46:47.383Z,1005.03
2019-05-18T01:47:47.401Z,1005.06
2019-05-18T01:48:47.437Z,1005.06
2019-05-18T01:49:47.483Z,1005.06
2019-05-18T01:50:47.538Z,1005.09
2019-05-18T01:51:47.547Z,1005.07
2019-05-18T01:52:47.578Z,1005.03
2019-05-18T01:53:47.611Z,1005.04
2019-05-18T01:54:47.644Z,1005.04
2019-05-18T01:55:47.676Z,1005.03
2019-05-18T01:56:47.710Z,1005.05
2019-05-18T01:57:47.742Z,1005.03
2019-05-18T01:58:47.779Z,1005.02
2019-05-18T01:59:47.809Z,1004.97
2019-05-18T02:00:47.838Z,1005.00
2019-05-18T02:01:47.878Z,1005.00
2019-05-18T02:02:47.914Z,1004.99
2019-05-18T02:03:47.930Z,1004.99
2019-05-18T02:04:47.966Z,1005.01
2019-05-18T02:05:47.997Z,1005.02
2019-05-18T02:06:48.033Z,1005.03
2019-05-18T02:07:48.064Z,1005.00
2019-05-18T02:08:48.103Z,1005.05
2019-05-18T02:09:48.132Z,1005.04
2019-05-18T02:10:48.173Z,1005.05
2019-05-18T02:11:48.204Z,1005.07
2019-05-18T02:12:48.237Z,1005.05
2019-05-18T02:13:48.269Z,1005.04
2019-05-18T02:14:48.303Z,1005.00
2019-05-18T02:15:48.321Z,1005.04
2019-05-18T02:16:48.370Z,1005.01
2019-05-18T02:17:48.397Z,1005.03
2019-05-18T02:18:48.437Z,1005.03
2019-05-18T02:19:48.464Z,1005.02
2019-05-18T02:20:48.503Z,1005.02
2019-05-18T02:21:48.537Z,1005.06
2019-05-18T02:22:48.571Z,1005.09
2019-05-18T02:23:48.606Z,1005.13
2019-05-18T02:24:48.633Z,1005.15
2019-05-18T02:25:48.665Z,1005.13
2019-05-18T02:26:48.691Z,1005.09
2019-05-18T02:27:48.717Z,1005.10
2019-05-18T02:28:48.762Z,1005.07
2019-05-18T02:29:48.798Z,1005.08
2019-05-18T02:30:48.831Z,1005.09
2019-05-18T02:31:48.860Z,1005.10
2019-05-18T02:32:48.891Z,1005.09
2019-05-18T02:33:48.924Z,1005.11
2019-05-18T02:34:48.943Z,1005.09
2019-05-18T02:35:49.004Z,1005.09
2019-05-18T02:36:49.021Z,1005.07
2019-05-18T02:37:49.059Z,1005.05
2019-05-18T02:38:49.103Z,1005.06
2019-05-18T02:39:49.122Z,1005.03
2019-05-18T02:40:49.163Z,1005.04
2019-05-18T02:41:49.196Z,1005.04
2019-05-18T02:42:49.209Z,1005.02
2019-05-18T02:43:49.254Z,1005.02
2019-05-18T02:44:49.272Z,1005.01
2019-05-18T02:45:49.311Z,1004.97
2019-05-18T02:46:49.340Z,1004.99
2019-05-18T02:47:49.378Z,1005.00
2019-05-18T02:48:50.795Z,1004.96
2019-05-18T02:49:49.449Z,1004.94
2019-05-18T02:50:49.483Z,1004.96
2019-05-18T02:51:49.514Z,1004.95
2019-05-18T02:52:49.546Z,1004.95
2019-05-18T02:53:49.608Z,1004.94
2019-05-18T02:54:49.632Z,1004.92
2019-05-18T02:55:49.645Z,1004.87
2019-05-18T02:56:49.668Z,1004.85
2019-05-18T02:57:49.722Z,1004.84
2019-05-18T02:58:49.744Z,1004.88
2019-05-18T02:59:49.777Z,1004.89
2019-05-18T03:00:49.815Z,1004.88
2019-05-18T03:01:49.841Z,1004.84
2019-05-18T03:02:49.909Z,1004.87
2019-05-18T03:03:49.896Z,1004.87
2019-05-18T03:04:49.943Z,1004.87
2019-05-18T03:05:49.973Z,1004.84
2019-05-18T03:06:50.004Z,1004.83
2019-05-18T03:07:50.046Z,1004.81
2019-05-18T03:08:50.067Z,1004.82
2019-05-18T03:09:50.101Z,1004.86
2019-05-18T03:10:50.134Z,1004.88
2019-05-18T03:11:50.168Z,1004.91
2019-05-18T03:12:50.196Z,1004.89
2019-05-18T03:13:50.229Z,1004.88
2019-05-18T03:14:50.264Z,1004.85
2019-05-18T03:15:50.294Z,1004.88
2019-05-18T03:16:50.324Z,1004.87
2019-05-18T03:17:50.363Z,1004.90
2019-05-18T03:19:06.922Z,1004.90
2019-05-18T03:19:50.427Z,1004.95
2019-05-18T03:20:50.470Z,1004.99
2019-05-18T03:21:50.482Z,1004.95
2019-05-18T03:22:50.524Z,1004.98
2019-05-18T03:23:50.561Z,1005.00
2019-05-18T03:24:50.578Z,1004.97
2019-05-18T03:25:50.629Z,1005.02
2019-05-18T03:26:50.652Z,1005.05
2019-05-18T03:27:50.680Z,1005.04
2019-05-18T03:28:50.719Z,1005.05
2019-05-18T03:29:50.751Z,1005.03
2019-05-18T03:30:50.770Z,1005.05
2019-05-18T03:31:50.816Z,1005.01
2019-05-18T03:32:50.852Z,1005.04
2019-05-18T03:33:50.891Z,1005.00
2019-05-18T03:34:50.913Z,1005.00
2019-05-18T03:35:50.946Z,1005.00
2019-05-18T03:36:50.975Z,1004.98
2019-05-18T03:37:51.019Z,1005.01
2019-05-18T03:38:51.045Z,1005.00
2019-05-18T03:39:51.096Z,1004.96
2019-05-18T03:40:51.097Z,1004.93
2019-05-18T03:41:51.144Z,1004.96
2019-05-18T03:42:51.172Z,1004.93
2019-05-18T03:43:51.207Z,1004.95
2019-05-18T03:44:51.230Z,1004.93
2019-05-18T03:45:51.262Z,1004.93
2019-05-18T03:46:51.294Z,1004.93
2019-05-18T03:47:51.334Z,1004.90
2019-05-18T03:48:51.368Z,1004.87
2019-05-18T03:49:51.411Z,1004.89
2019-05-18T03:50:51.444Z,1004.91
2019-05-18T03:51:51.467Z,1004.90
2019-05-18T03:52:51.498Z,1004.93
2019-05-18T03:53:51.531Z,1004.96
2019-05-18T03:54:51.566Z,1004.94
2019-05-18T03:55:51.598Z,1004.96
2019-05-18T03:56:51.626Z,1004.91
2019-05-18T03:57:51.665Z,1004.90
2019-05-18T03:58:51.695Z,1004.91
2019-05-18T03:59:51.745Z,1004.90
2019-05-18T04:00:51.758Z,1004.89
2019-05-18T04:01:51.783Z,1004.90
2019-05-18T04:02:51.835Z,1004.85
2019-05-18T04:03:51.858Z,1004.88
2019-05-18T04:04:51.880Z,1004.84
2019-05-18T04:05:51.920Z,1004.86
2019-05-18T04:06:51.946Z,1004.87
2019-05-18T04:07:51.998Z,1004.88
2019-05-18T04:08:52.014Z,1004.90
2019-05-18T04:09:52.050Z,1004.90
2019-05-18T04:10:52.067Z,1004.88
2019-05-18T04:11:52.115Z,1004.90
2019-05-18T04:12:52.142Z,1004.88
2019-05-18T04:13:52.179Z,1004.85
2019-05-18T04:14:52.212Z,1004.87
2019-05-18T04:15:52.244Z,1004.82
2019-05-18T04:16:52.273Z,1004.86
2019-05-18T04:17:52.313Z,1004.83
2019-05-18T04:18:52.343Z,1004.81
2019-05-18T04:19:52.397Z,1004.79
2019-05-18T04:20:52.406Z,1004.81
2019-05-18T04:21:52.440Z,1004.81
2019-05-18T04:22:52.471Z,1004.81
2019-05-18T04:23:52.529Z,1004.78
2019-05-18T04:24:52.550Z,1004.77
2019-05-18T04:25:52.566Z,1004.80
2019-05-18T04:26:52.588Z,1004.83
2019-05-18T04:27:52.643Z,1004.80
2019-05-18T04:28:52.666Z,1004.80
2019-05-18T04:29:52.697Z,1004.77
2019-05-18T04:30:52.729Z,1004.78
2019-05-18T04:31:52.763Z,1004.77
2019-05-18T04:32:52.809Z,1004.77
2019-05-18T04:33:52.825Z,1004.77
2019-05-18T04:34:52.862Z,1004.78
2019-05-18T04:35:52.891Z,1004.78
2019-05-18T04:36:52.924Z,1004.77
2019-05-18T04:37:52.960Z,1004.79
2019-05-18T04:38:52.994Z,1004.81
2019-05-18T04:39:53.020Z,1004.78
2019-05-18T04:40:53.058Z,1004.78
2019-05-18T04:41:53.086Z,1004.78
2019-05-18T04:42:53.107Z,1004.77
2019-05-18T04:43:53.162Z,1004.77
2019-05-18T04:44:53.176Z,1004.81
2019-05-18T04:45:53.248Z,1004.80
2019-05-18T04:46:53.249Z,1004.81
2019-05-18T04:47:53.283Z,1004.80
2019-05-18T04:48:53.315Z,1004.85
2019-05-18T04:50:04.599Z,1004.82
2019-05-18T04:50:53.389Z,1004.82
2019-05-18T04:51:53.418Z,1004.79
2019-05-18T04:52:53.447Z,1004.79
2019-05-18T04:53:53.481Z,1004.83
2019-05-18T04:54:53.514Z,1004.80
2019-05-18T04:55:53.531Z,1004.82
2019-05-18T04:56:53.584Z,1004.80
2019-05-18T04:57:53.614Z,1004.85
2019-05-18T04:58:53.653Z,1004.86
2019-05-18T04:59:53.674Z,1004.87
2019-05-18T05:00:53.711Z,1004.87
2019-05-18T05:01:53.750Z,1004.83
2019-05-18T05:02:53.768Z,1004.84
2019-05-18T05:03:53.815Z,1004.82
2019-05-18T05:04:56.601Z,1004.80
2019-05-18T05:05:53.873Z,1004.77
2019-05-18T05:06:53.904Z,1004.80
2019-05-18T05:07:53.936Z,1004.81
2019-05-18T05:08:53.968Z,1004.81
2019-05-18T05:09:53.992Z,1004.81
2019-05-18T05:10:54.033Z,1004.80
2019-05-18T05:11:54.058Z,1004.80
2019-05-18T05:12:54.097Z,1004.81
2019-05-18T05:13:54.138Z,1004.82
2019-05-18T05:14:54.163Z,1004.85
2019-05-18T05:15:54.199Z,1004.84
2019-05-18T05:16:54.226Z,1004.86
2019-05-18T05:17:54.273Z,1004.85
2019-05-18T05:18:54.302Z,1004.80
2019-05-18T05:19:54.333Z,1004.78
2019-05-18T05:20:54.351Z,1004.79
2019-05-18T05:21:54.387Z,1004.81
2019-05-18T05:22:54.427Z,1004.79
2019-05-18T05:23:54.458Z,1004.79
2019-05-18T05:24:54.495Z,1004.77
2019-05-18T05:25:54.527Z,1004.74
2019-05-18T05:26:54.558Z,1004.77
2019-05-18T05:27:54.594Z,1004.79
2019-05-18T05:28:54.623Z,1004.79
2019-05-18T05:29:54.697Z,1004.78
2019-05-18T05:30:54.703Z,1004.81
2019-05-18T05:31:54.711Z,1004.79
2019-05-18T05:32:54.779Z,1004.79
2019-05-18T05:33:54.785Z,1004.80
2019-05-18T05:34:54.811Z,1004.78
2019-05-18T05:35:54.870Z,1004.79
2019-05-18T05:36:54.886Z,1004.83
2019-05-18T05:37:54.928Z,1004.84
2019-05-18T05:38:54.953Z,1004.80
2019-05-18T05:39:54.978Z,1004.86
2019-05-18T05:40:55.018Z,1004.82
2019-05-18T05:41:55.059Z,1004.85
2019-05-18T05:42:55.081Z,1004.86
2019-05-18T05:43:55.115Z,1004.90
2019-05-18T05:44:55.147Z,1004.90
2019-05-18T05:45:55.181Z,1004.90
2019-05-18T05:46:55.217Z,1004.88
2019-05-18T05:47:55.250Z,1004.86
2019-05-18T05:48:55.283Z,1004.87
2019-05-18T05:49:55.319Z,1004.87
2019-05-18T05:50:55.340Z,1004.89
2019-05-18T05:51:55.384Z,1004.91
2019-05-18T05:52:55.414Z,1004.94
2019-05-18T05:53:55.448Z,1004.93
2019-05-18T05:54:55.485Z,1004.92
2019-05-18T05:55:55.506Z,1004.96
2019-05-18T05:56:55.548Z,1004.94
2019-05-18T05:57:55.582Z,1004.92
2019-05-18T05:58:55.611Z,1004.98
2019-05-18T05:59:55.644Z,1004.95
2019-05-18T06:00:55.675Z,1004.94
2019-05-18T06:01:55.709Z,1004.91
2019-05-18T06:02:55.751Z,1004.93
2019-05-18T06:03:55.778Z,1004.94
2019-05-18T06:04:55.812Z,1004.88
2019-05-18T06:05:55.841Z,1004.92
2019-05-18T06:06:55.878Z,1004.95
2019-05-18T06:07:55.906Z,1004.95
2019-05-18T06:08:55.941Z,1004.94
2019-05-18T06:09:55.971Z,1004.93
2019-05-18T06:10:56.000Z,1004.97
2019-05-18T06:11:56.034Z,1004.97
2019-05-18T06:12:56.072Z,1004.97
2019-05-18T06:13:56.136Z,1004.98
2019-05-18T06:14:56.131Z,1004.97
2019-05-18T06:15:56.175Z,1005.01
2019-05-18T06:16:56.209Z,1005.00
2019-05-18T06:17:56.229Z,1005.02
2019-05-18T06:18:56.270Z,1005.00
2019-05-18T06:19:56.302Z,1005.04
2019-05-18T06:20:56.350Z,1005.01
2019-05-18T06:21:56.373Z,1005.03
2019-05-18T06:22:56.403Z,1005.08
2019-05-18T06:23:56.429Z,1005.09
2019-05-18T06:24:56.481Z,1005.05
2019-05-18T06:25:56.509Z,1005.07
2019-05-18T06:26:56.544Z,1005.09
2019-05-18T06:27:56.573Z,1005.07
2019-05-18T06:28:56.609Z,1005.08
2019-05-18T06:29:56.646Z,1005.00
2019-05-18T06:30:56.679Z,1005.04
2019-05-18T06:31:56.701Z,1004.99
2019-05-18T06:32:56.737Z,1005.01
2019-05-18T06:33:56.769Z,1004.97
2019-05-18T06:34:56.814Z,1004.99
2019-05-18T06:35:56.842Z,1005.00
2019-05-18T06:36:56.920Z,1005.01
2019-05-18T06:37:56.933Z,1004.99
2019-05-18T06:38:57.001Z,1005.02
2019-05-18T06:39:57.016Z,1004.98
2019-05-18T06:40:57.034Z,1005.02
2019-05-18T06:41:57.078Z,1004.98
2019-05-18T06:42:57.081Z,1005.02
2019-05-18T06:43:58.458Z,1005.04
2019-05-18T06:44:57.146Z,1005.02
2019-05-18T06:45:57.184Z,1005.03
2019-05-18T06:46:57.214Z,1005.08
2019-05-18T06:47:57.242Z,1005.05
2019-05-18T06:48:57.284Z,1005.01
2019-05-18T06:49:57.321Z,1005.00
2019-05-18T06:51:06.918Z,1005.03
2019-05-18T06:51:57.383Z,1004.96
2019-05-18T06:52:57.415Z,1004.96
2019-05-18T06:53:57.441Z,1005.00
2019-05-18T06:54:57.476Z,1004.92
2019-05-18T06:55:57.521Z,1004.92
2019-05-18T06:56:57.554Z,1004.90
2019-05-18T06:57:57.581Z,1004.89
2019-05-18T06:58:57.630Z,1004.92
2019-05-18T06:59:57.650Z,1004.88
2019-05-18T07:00:57.683Z,1004.86
2019-05-18T07:01:57.719Z,1004.85
2019-05-18T07:02:57.755Z,1004.85
2019-05-18T07:03:57.787Z,1004.84
2019-05-18T07:04:57.811Z,1004.85
2019-05-18T07:05:57.851Z,1004.85
2019-05-18T07:06:57.877Z,1004.83
2019-05-18T07:07:57.921Z,1004.84
2019-05-18T07:08:57.959Z,1004.86
2019-05-18T07:09:57.994Z,1004.91
2019-05-18T07:10:58.019Z,1004.92
2019-05-18T07:11:58.058Z,1004.85
2019-05-18T07:12:58.089Z,1004.89
2019-05-18T07:13:58.122Z,1004.92
2019-05-18T07:15:00.331Z,1004.88
2019-05-18T07:15:58.201Z,1004.87
2019-05-18T07:16:58.228Z,1004.85
2019-05-18T07:17:58.268Z,1004.88
2019-05-18T07:18:58.301Z,1004.87
2019-05-18T07:19:58.331Z,1004.86
2019-05-18T07:20:58.364Z,1004.84
2019-05-18T07:21:58.402Z,1004.85
2019-05-18T07:22:58.433Z,1004.85
2019-05-18T07:23:58.470Z,1004.82
2019-05-18T07:24:58.502Z,1004.83
2019-05-18T07:25:58.536Z,1004.80
2019-05-18T07:26:58.575Z,1004.76
2019-05-18T07:27:58.603Z,1004.79
2019-05-18T07:28:58.636Z,1004.76
2019-05-18T07:29:58.677Z,1004.74
2019-05-18T07:30:58.705Z,1004.78
2019-05-18T07:31:58.735Z,1004.76
2019-05-18T07:32:58.773Z,1004.75
2019-05-18T07:33:58.815Z,1004.72
2019-05-18T07:34:58.886Z,1004.72
2019-05-18T07:35:58.883Z,1004.74
2019-05-18T07:36:58.899Z,1004.71
2019-05-18T07:37:58.951Z,1004.74
2019-05-18T07:38:58.982Z,1004.68
2019-05-18T07:39:59.018Z,1004.71
2019-05-18T07:40:59.037Z,1004.66
2019-05-18T07:41:59.087Z,1004.69
2019-05-18T07:42:59.118Z,1004.72
2019-05-18T07:43:59.157Z,1004.69
2019-05-18T07:44:59.188Z,1004.73
2019-05-18T07:45:59.237Z,1004.71
2019-05-18T07:46:59.247Z,1004.67
2019-05-18T07:47:59.294Z,1004.67
2019-05-18T07:48:59.330Z,1004.71
2019-05-18T07:49:59.356Z,1004.63
2019-05-18T07:50:59.389Z,1004.73
2019-05-18T07:51:59.440Z,1004.68
2019-05-18T07:52:59.465Z,1004.69
2019-05-18T07:53:59.499Z,1004.66
2019-05-18T07:54:59.545Z,1004.70
2019-05-18T07:55:59.574Z,1004.64
2019-05-18T07:56:59.599Z,1004.70
2019-05-18T07:57:59.644Z,1004.68
2019-05-18T07:58:59.681Z,1004.68
2019-05-18T07:59:59.715Z,1004.68
2019-05-18T08:00:59.756Z,1004.62
2019-05-18T08:01:59.785Z,1004.62
2019-05-18T08:02:59.817Z,1004.63
2019-05-18T08:03:59.854Z,1004.58
2019-05-18T08:04:59.911Z,1004.57
2019-05-18T08:05:59.931Z,1004.62
2019-05-18T08:06:59.967Z,1004.57
2019-05-18T08:07:59.994Z,1004.59
2019-05-18T08:09:00.032Z,1004.52
2019-05-18T08:10:00.067Z,1004.56
2019-05-18T08:11:00.101Z,1004.55
2019-05-18T08:12:00.128Z,1004.53
2019-05-18T08:13:00.174Z,1004.46
2019-05-18T08:14:00.209Z,1004.53
2019-05-18T08:15:00.245Z,1004.55
2019-05-18T08:16:00.282Z,1004.55
2019-05-18T08:17:00.313Z,1004.53
2019-05-18T08:18:00.350Z,1004.53
2019-05-18T08:19:00.379Z,1004.54
2019-05-18T08:20:00.427Z,1004.55
2019-05-18T08:21:00.458Z,1004.56
2019-05-18T08:22:00.490Z,1004.53
2019-05-18T08:23:00.528Z,1004.55
2019-05-18T08:24:00.564Z,1004.50
2019-05-18T08:25:00.604Z,1004.51
2019-05-18T08:26:00.638Z,1004.50
2019-05-18T08:27:02.333Z,1004.55
2019-05-18T08:28:00.713Z,1004.57
2019-05-18T08:29:00.766Z,1004.54
2019-05-18T08:30:00.780Z,1004.51
2019-05-18T08:31:00.803Z,1004.50
2019-05-18T08:32:00.846Z,1004.53
2019-05-18T08:33:00.889Z,1004.48
2019-05-18T08:34:00.914Z,1004.46
2019-05-18T08:35:00.966Z,1004.47
2019-05-18T08:36:01.002Z,1004.41
2019-05-18T08:37:01.014Z,1004.39
2019-05-18T08:38:01.068Z,1004.35
2019-05-18T08:39:01.109Z,1004.32
2019-05-18T08:40:01.135Z,1004.27
2019-05-18T08:41:01.162Z,1004.26
2019-05-18T08:42:01.203Z,1004.30
2019-05-18T08:43:01.248Z,1004.33
2019-05-18T08:44:01.270Z,1004.22
2019-05-18T08:45:01.322Z,1004.17
2019-05-18T08:46:01.374Z,1004.21
2019-05-18T08:47:01.500Z,1004.19
2019-05-18T08:48:01.461Z,1004.15
2019-05-18T08:49:01.505Z,1004.22
2019-05-18T08:50:01.527Z,1004.18
2019-05-18T08:51:01.550Z,1004.17
2019-05-18T08:52:08.448Z,1004.13
2019-05-18T08:53:01.600Z,1004.17
2019-05-18T08:54:01.638Z,1004.18
2019-05-18T08:55:01.672Z,1004.16
2019-05-18T08:56:01.709Z,1004.14
2019-05-18T08:57:01.746Z,1004.18
2019-05-18T08:58:01.803Z,1004.15
2019-05-18T08:59:01.818Z,1004.12
2019-05-18T09:00:01.908Z,1004.09
2019-05-18T09:01:01.908Z,1004.13
2019-05-18T09:02:01.937Z,1004.13
2019-05-18T09:03:01.970Z,1004.14
2019-05-18T09:04:02.016Z,1004.09
2019-05-18T09:05:04.825Z,1004.07
2019-05-18T09:06:02.091Z,1004.08
2019-05-18T09:07:02.132Z,1004.07
2019-05-18T09:08:02.145Z,1004.05
2019-05-18T09:09:02.186Z,1004.08
2019-05-18T09:10:02.231Z,1004.09
2019-05-18T09:11:02.278Z,1004.08
2019-05-18T09:12:02.398Z,1004.02
2019-05-18T09:13:02.386Z,1004.03
2019-05-18T09:14:02.368Z,1004.06
2019-05-18T09:15:02.425Z,1004.08
2019-05-18T09:16:02.457Z,1004.08
2019-05-18T09:17:02.486Z,1004.07
2019-05-18T09:18:04.837Z,1004.02
2019-05-18T09:19:02.586Z,1003.94
2019-05-18T09:20:02.589Z,1003.96
2019-05-18T09:21:02.638Z,1003.97
2019-05-18T09:22:02.669Z,1003.97
2019-05-18T09:23:02.692Z,1003.97
2019-05-18T09:24:02.738Z,1003.98
2019-05-18T09:25:02.819Z,1003.94
2019-05-18T09:26:02.827Z,1003.91
2019-05-18T09:27:02.850Z,1003.92
2019-05-18T09:28:02.892Z,1003.98
2019-05-18T09:29:02.992Z,1003.95
2019-05-18T09:30:03.103Z,1003.91
2019-05-18T09:31:03.045Z,1003.86
2019-05-18T09:32:03.041Z,1003.87
2019-05-18T09:33:03.076Z,1003.87
2019-05-18T09:34:03.130Z,1003.85
2019-05-18T09:35:03.193Z,1003.86
2019-05-18T09:36:03.201Z,1003.86
2019-05-18T09:37:03.239Z,1003.84
2019-05-18T09:38:03.279Z,1003.81
2019-05-18T09:39:03.318Z,1003.78
2019-05-18T09:40:03.350Z,1003.87
2019-05-18T09:41:03.386Z,1003.88
2019-05-18T09:42:03.427Z,1003.90
2019-05-18T09:43:03.454Z,1003.87
2019-05-18T09:44:03.488Z,1003.86
2019-05-18T09:45:03.531Z,1003.87
2019-05-18T09:46:03.570Z,1003.87
2019-05-18T09:47:03.624Z,1003.84
2019-05-18T09:48:03.716Z,1003.78
2019-05-18T09:49:03.677Z,1003.79
2019-05-18T09:50:03.717Z,1003.81
2019-05-18T09:51:03.772Z,1003.74
2019-05-18T09:52:03.997Z,1003.78
2019-05-18T09:53:04.174Z,1003.72
2019-05-18T09:54:03.866Z,1003.69
2019-05-18T09:55:03.922Z,1003.62
2019-05-18T09:56:03.953Z,1003.71
2019-05-18T09:57:03.982Z,1003.68
2019-05-18T09:58:04.024Z,1003.65
2019-05-18T09:59:04.060Z,1003.68
2019-05-18T10:00:04.100Z,1003.71
2019-05-18T10:01:04.156Z,1003.68
2019-05-18T10:02:04.172Z,1003.67
2019-05-18T10:03:04.214Z,1003.65
2019-05-18T10:04:04.259Z,1003.62
2019-05-18T10:05:04.276Z,1003.68
2019-05-18T10:06:04.361Z,1003.56
2019-05-18T10:07:04.366Z,1003.68
2019-05-18T10:08:04.415Z,1003.58
2019-05-18T10:09:04.445Z,1003.57
2019-05-18T10:10:04.483Z,1003.54
2019-05-18T10:11:04.536Z,1003.52
2019-05-18T10:12:04.566Z,1003.52
2019-05-18T10:13:04.607Z,1003.46
2019-05-18T10:14:04.668Z,1003.50
2019-05-18T10:15:04.694Z,1003.48
2019-05-18T10:16:04.715Z,1003.46
2019-05-18T10:17:04.753Z,1003.42
2019-05-18T10:18:04.788Z,1003.40
2019-05-18T10:19:04.831Z,1003.47
2019-05-18T10:20:04.868Z,1003.48
2019-05-18T10:21:04.923Z,1003.44
2019-05-18T10:22:04.942Z,1003.46
2019-05-18T10:23:13.265Z,1003.45
2019-05-18T10:24:05.024Z,1003.44
2019-05-18T10:25:05.072Z,1003.45
2019-05-18T10:26:05.101Z,1003.49
2019-05-18T10:27:05.136Z,1003.48
2019-05-18T10:28:05.182Z,1003.47
2019-05-18T10:29:05.214Z,1003.47
2019-05-18T10:30:05.260Z,1003.41
2019-05-18T10:31:05.308Z,1003.38
2019-05-18T10:32:05.337Z,1003.41
2019-05-18T10:33:05.378Z,1003.38
2019-05-18T10:34:05.415Z,1003.38
2019-05-18T10:35:05.462Z,1003.43
2019-05-18T10:36:05.489Z,1003.37
2019-05-18T10:37:05.540Z,1003.32
2019-05-18T10:38:05.585Z,1003.26
2019-05-18T10:39:05.609Z,1003.30
2019-05-18T10:40:05.663Z,1003.39
2019-05-18T10:41:05.695Z,1003.29
2019-05-18T10:42:05.735Z,1003.34
2019-05-18T10:43:05.782Z,1003.32
2019-05-18T10:44:05.804Z,1003.33
2019-05-18T10:45:05.856Z,1003.28
2019-05-18T10:46:05.898Z,1003.25
2019-05-18T10:47:05.937Z,1003.19
2019-05-18T10:48:05.983Z,1003.17
2019-05-18T10:49:06.005Z,1003.20
2019-05-18T10:50:06.041Z,1003.21
2019-05-18T10:51:06.097Z,1003.17
2019-05-18T10:52:06.130Z,1003.13
2019-05-18T10:53:06.190Z,1003.08
2019-05-18T10:54:06.205Z,1003.11
2019-05-18T10:55:06.253Z,1003.07
2019-05-18T10:56:06.289Z,1003.02
2019-05-18T10:57:06.373Z,1003.08
2019-05-18T10:58:06.377Z,1003.14
2019-05-18T10:59:06.406Z,1003.06
2019-05-18T11:00:06.475Z,1003.02
2019-05-18T11:01:06.483Z,1003.01
2019-05-18T11:02:06.528Z,1003.03
2019-05-18T11:03:06.567Z,1003.06
2019-05-18T11:04:06.603Z,1003.02
2019-05-18T11:05:06.646Z,1003.06
2019-05-18T11:06:06.691Z,1003.00
2019-05-18T11:07:06.725Z,1003.03
2019-05-18T11:08:06.769Z,1002.99
2019-05-18T11:09:06.803Z,1002.96
2019-05-18T11:10:06.837Z,1002.95
2019-05-18T11:11:06.888Z,1002.95
2019-05-18T11:12:06.951Z,1002.92
2019-05-18T11:13:06.959Z,1002.96
2019-05-18T11:14:07.013Z,1002.88
2019-05-18T11:15:07.047Z,1002.94
2019-05-18T11:16:07.088Z,1002.87
2019-05-18T11:17:07.123Z,1002.92
2019-05-18T11:18:07.208Z,1002.93
2019-05-18T11:19:07.203Z,1002.94
2019-05-18T11:20:07.244Z,1002.89
2019-05-18T11:21:07.282Z,1002.95
2019-05-18T11:22:07.321Z,1002.90
2019-05-18T11:23:07.363Z,1002.85
2019-05-18T11:24:07.403Z,1002.85
2019-05-18T11:25:07.445Z,1002.87
2019-05-18T11:26:07.489Z,1002.90
2019-05-18T11:27:07.525Z,1002.85
2019-05-18T11:28:07.561Z,1002.90
2019-05-18T11:29:07.604Z,1002.87
2019-05-18T11:30:07.991Z,1002.88
2019-05-18T11:31:07.675Z,1002.93
2019-05-18T11:32:07.728Z,1002.97
2019-05-18T11:33:07.752Z,1002.88
2019-05-18T11:34:07.825Z,1002.86
2019-05-18T11:35:07.845Z,1002.91
2019-05-18T11:36:07.881Z,1002.89
2019-05-18T11:37:07.925Z,1002.90
2019-05-18T11:38:07.963Z,1002.90
2019-05-18T11:39:08.007Z,1002.88
2019-05-18T11:40:08.042Z,1002.92
2019-05-18T11:41:08.079Z,1002.90
2019-05-18T11:42:08.119Z,1002.87
2019-05-18T11:43:08.160Z,1002.91
2019-05-18T11:44:10.806Z,1002.84
2019-05-18T11:45:08.266Z,1002.86
2019-05-18T11:46:08.281Z,1002.91
2019-05-18T11:47:08.313Z,1002.91
2019-05-18T11:48:08.371Z,1002.89
2019-05-18T11:49:08.392Z,1002.84
2019-05-18T11:50:08.465Z,1002.78
2019-05-18T11:51:08.486Z,1002.82
2019-05-18T11:52:08.520Z,1002.82
2019-05-18T11:53:08.555Z,1002.82
2019-05-18T11:54:08.618Z,1002.80
2019-05-18T11:55:08.632Z,1002.79
2019-05-18T11:56:08.689Z,1002.84
2019-05-18T11:57:08.717Z,1002.79
2019-05-18T11:58:08.763Z,1002.84
2019-05-18T11:59:08.802Z,1002.87
2019-05-18T12:00:08.848Z,1002.83
2019-05-18T12:01:08.889Z,1002.83
2019-05-18T12:02:08.927Z,1002.86
2019-05-18T12:03:08.974Z,1002.84
2019-05-18T12:04:08.998Z,1002.81
2019-05-18T12:05:09.031Z,1002.77
2019-05-18T12:06:09.081Z,1002.77